createdAt,value
2023-02-05T00:00:27.055Z,14.63
2023-02-05T00:05:29.562Z,8.10
2023-02-05T00:10:32.581Z,5.93
2023-02-05T00:15:39.504Z,9.27
2023-02-05T00:20:42.102Z,6.00
2023-02-05T00:25:44.454Z,5.70
2023-02-05T00:30:46.968Z,4.60
2023-02-05T00:35:51.104Z,4.30
2023-02-05T00:40:53.562Z,4.03
2023-02-05T00:45:56.213Z,4.37
2023-02-05T00:50:58.893Z,4.20
2023-02-05T00:56:01.586Z,29.20
2023-02-05T01:01:04.923Z,9.00
2023-02-05T01:06:08.348Z,7.60
2023-02-05T01:11:11.427Z,7.50
2023-02-05T01:16:14.217Z,7.70
2023-02-05T01:21:16.797Z,5.97
2023-02-05T01:26:19.302Z,7.03
2023-02-05T01:31:22.455Z,8.27
2023-02-05T01:36:24.938Z,7.27
2023-02-05T01:41:27.386Z,6.27
2023-02-05T01:46:31.041Z,8.73
2023-02-05T01:51:36.566Z,7.53
2023-02-05T01:57:03.346Z,7.87
2023-02-05T02:02:08.636Z,7.10
2023-02-05T02:07:14.631Z,7.27
2023-02-05T02:12:23.170Z,7.93
2023-02-05T02:17:27.876Z,6.87
2023-02-05T02:22:55.110Z,6.60
2023-02-05T02:28:12.153Z,7.43
2023-02-05T02:33:20.404Z,6.63
2023-02-05T02:38:34.510Z,6.23
2023-02-05T02:43:50.146Z,5.77
2023-02-05T02:48:57.287Z,6.70
2023-02-05T02:54:05.456Z,5.63
2023-02-05T02:59:14.775Z,5.27
2023-02-05T03:04:39.272Z,5.93
2023-02-05T03:09:58.208Z,6.23
2023-02-05T03:15:01.584Z,8.63
2023-02-05T03:20:10.409Z,9.80
2023-02-05T03:25:14.730Z,10.57
2023-02-05T03:30:18.377Z,8.60
2023-02-05T03:35:53.616Z,12.40
2023-02-05T03:41:13.981Z,14.27
2023-02-05T03:46:37.830Z,22.60
2023-02-05T03:51:47.835Z,17.73
2023-02-05T03:57:18.575Z,17.13
2023-02-05T04:02:23.167Z,18.47
2023-02-05T04:07:25.774Z,15.90
2023-02-05T04:12:28.513Z,16.03
2023-02-05T04:17:31.929Z,18.73
2023-02-05T04:22:34.550Z,22.40
2023-02-05T04:27:37.254Z,19.90
2023-02-05T04:32:44.087Z,19.57
2023-02-05T04:37:47.320Z,22.43
2023-02-05T04:42:50.985Z,26.50
2023-02-05T04:47:53.345Z,25.97
2023-02-05T04:52:55.740Z,30.47
2023-02-05T04:57:58.824Z,21.23
2023-02-05T05:03:01.382Z,11.77
2023-02-05T05:08:03.863Z,8.90
2023-02-05T05:13:06.238Z,7.50
2023-02-05T05:18:08.992Z,6.93
2023-02-05T05:23:11.457Z,6.30
2023-02-05T05:28:15.122Z,6.43
2023-02-05T05:33:17.593Z,8.03
2023-02-05T05:38:20.001Z,14.60
2023-02-05T05:43:40.765Z,19.70
2023-02-05T05:48:43.177Z,22.90
2023-02-05T05:53:46.408Z,18.63
2023-02-05T05:58:49.333Z,21.67
2023-02-05T06:03:51.733Z,19.37
2023-02-05T06:08:54.143Z,16.90
2023-02-05T06:13:56.508Z,15.50
2023-02-05T06:18:59.371Z,10.53
2023-02-05T06:24:01.787Z,9.10
2023-02-05T06:29:04.274Z,10.90
2023-02-05T06:34:06.713Z,13.83
2023-02-05T06:39:09.154Z,22.17
2023-02-05T06:44:11.581Z,21.13
2023-02-05T06:49:13.984Z,16.67
2023-02-05T06:54:16.515Z,15.67
2023-02-05T06:59:18.923Z,118.27
2023-02-05T07:04:21.317Z,117.33
2023-02-05T07:09:24.125Z,88.63
2023-02-05T07:14:26.542Z,49.87
2023-02-05T07:19:29.465Z,26.20
2023-02-05T07:24:31.999Z,21.73
2023-02-05T07:29:34.359Z,38.83
2023-02-05T07:34:36.869Z,36.37
2023-02-05T07:39:39.335Z,35.53
2023-02-05T07:44:41.820Z,31.53
2023-02-05T07:49:44.211Z,51.30
2023-02-05T07:54:47.672Z,72.93
2023-02-05T07:59:50.050Z,90.83
2023-02-05T08:04:52.695Z,80.13
2023-02-05T08:09:55.105Z,73.53
2023-02-05T08:14:57.466Z,41.37
2023-02-05T08:20:07.361Z,39.27
2023-02-05T08:25:12.796Z,29.37
2023-02-05T08:30:17.347Z,27.43
2023-02-05T08:35:19.905Z,31.17
2023-02-05T08:40:22.449Z,35.37
2023-02-05T08:45:25.098Z,21.73
2023-02-05T08:50:27.764Z,30.60
2023-02-05T08:55:30.261Z,53.47
2023-02-05T09:00:33.330Z,29.50
2023-02-05T09:05:35.986Z,169.97
2023-02-05T09:10:38.540Z,39.30
2023-02-05T09:15:48.278Z,23.33
2023-02-05T09:20:52.790Z,31.43
2023-02-05T09:25:55.177Z,22.50
2023-02-05T09:30:57.684Z,52.87
2023-02-05T09:36:06.604Z,31.27
2023-02-05T09:41:14.916Z,46.10
2023-02-05T09:46:23.559Z,51.33
2023-02-05T09:51:49.901Z,57.53
2023-02-05T09:56:57.176Z,61.23
2023-02-05T10:02:18.178Z,96.30
2023-02-05T10:07:35.824Z,37.40
2023-02-05T10:12:43.597Z,45.07
2023-02-05T10:18:14.892Z,70.20
2023-02-05T10:23:30.384Z,62.30
2023-02-05T10:28:40.649Z,52.07
2023-02-05T10:34:18.851Z,33.07
2023-02-05T10:39:25.479Z,26.70
2023-02-05T10:44:32.532Z,25.60
2023-02-05T10:50:06.907Z,34.10
2023-02-05T10:55:13.148Z,18.87
2023-02-05T11:00:19.693Z,21.30
2023-02-05T11:05:30.394Z,23.57
2023-02-05T11:10:35.823Z,13.17
2023-02-05T11:16:04.300Z,12.70
2023-02-05T11:21:09.220Z,13.83
2023-02-05T11:26:23.694Z,13.00
2023-02-05T11:31:30.750Z,12.80
2023-02-05T11:36:33.315Z,23.10
2023-02-05T11:41:51.846Z,16.90
2023-02-05T11:46:57.080Z,35.53
2023-02-05T11:52:01.710Z,16.03
2023-02-05T11:57:22.105Z,29.17
2023-02-05T12:02:28.838Z,15.50
2023-02-05T12:08:03.403Z,14.83
2023-02-05T12:13:25.274Z,15.57
2023-02-05T12:18:40.534Z,20.50
2023-02-05T12:23:49.548Z,33.30
2023-02-05T12:28:57.926Z,21.63
2023-02-05T12:34:03.077Z,14.13
2023-02-05T12:39:44.597Z,13.50
2023-02-05T12:44:46.970Z,17.93
2023-02-05T12:50:03.548Z,33.33
2023-02-05T12:55:31.355Z,17.73
2023-02-05T13:00:54.595Z,16.30
2023-02-05T13:06:08.973Z,11.40
2023-02-05T13:11:25.078Z,18.17
2023-02-05T13:16:37.872Z,17.30
2023-02-05T13:21:59.852Z,17.87
2023-02-05T13:27:20.722Z,17.87
2023-02-05T13:32:25.609Z,49.83
2023-02-05T13:38:10.416Z,17.83
2023-02-05T13:43:27.933Z,19.50
2023-02-05T13:48:39.286Z,28.27
2023-02-05T13:54:13.769Z,35.43
2023-02-05T13:59:41.421Z,19.77
2023-02-05T14:04:54.039Z,18.63
2023-02-05T14:10:00.995Z,22.13
2023-02-05T14:15:15.894Z,17.40
2023-02-05T14:20:31.201Z,15.23
2023-02-05T14:25:39.001Z,15.03
2023-02-05T14:31:03.387Z,10.57
2023-02-05T14:36:22.735Z,52.07
2023-02-05T14:41:31.068Z,34.07
2023-02-05T14:46:36.571Z,26.30
2023-02-05T14:51:41.470Z,18.50
2023-02-05T14:56:50.942Z,15.80
2023-02-05T15:01:54.505Z,15.83
2023-02-05T15:07:01.128Z,17.67
2023-02-05T15:12:27.833Z,18.77
2023-02-05T15:17:48.586Z,19.40
2023-02-05T15:23:06.487Z,19.33
2023-02-05T15:28:21.831Z,20.07
2023-02-05T15:33:54.111Z,17.67
2023-02-05T15:39:24.521Z,19.00
2023-02-05T15:44:33.094Z,20.60
2023-02-05T15:49:43.177Z,22.07
2023-02-05T15:54:45.643Z,29.13
2023-02-05T15:59:48.521Z,37.53
2023-02-05T16:04:57.412Z,43.03
2023-02-05T16:10:01.488Z,47.00
2023-02-05T16:15:13.420Z,48.83
2023-02-05T16:20:22.385Z,58.33
2023-02-05T16:25:28.073Z,47.97
2023-02-05T16:30:44.881Z,121.67
2023-02-05T16:35:48.711Z,97.80
2023-02-05T16:40:54.638Z,56.73
2023-02-05T16:46:09.151Z,59.60
2023-02-05T16:51:32.503Z,64.03
2023-02-05T16:56:38.124Z,80.87
2023-02-05T17:01:43.902Z,87.80
2023-02-05T17:06:46.322Z,107.20
2023-02-05T17:11:48.730Z,104.97
2023-02-05T17:17:00.994Z,118.43
2023-02-05T17:22:15.474Z,126.70
2023-02-05T17:27:27.740Z,142.70
2023-02-05T17:32:32.200Z,115.37
2023-02-05T17:37:34.996Z,147.70
2023-02-05T17:42:37.621Z,61.37
2023-02-05T17:47:41.702Z,58.97
2023-02-05T17:52:44.974Z,53.23
2023-02-05T17:57:47.783Z,42.63
2023-02-05T18:02:52.486Z,42.43
2023-02-05T18:07:57.802Z,45.17
2023-02-05T18:13:00.355Z,41.27
2023-02-05T18:18:02.886Z,29.73
2023-02-05T18:23:05.416Z,29.77
2023-02-05T18:28:07.850Z,27.13
2023-02-05T18:33:10.252Z,28.23
2023-02-05T18:38:12.671Z,30.63
2023-02-05T18:43:15.513Z,26.43
2023-02-05T18:48:18.131Z,23.27
2023-02-05T18:53:20.692Z,27.37
2023-02-05T18:58:23.042Z,38.43
2023-02-05T19:03:25.770Z,29.77
2023-02-05T19:08:28.265Z,23.17
2023-02-05T19:13:30.682Z,60.70
2023-02-05T19:18:33.388Z,26.10
2023-02-05T19:23:36.170Z,18.30
2023-02-05T19:28:38.646Z,38.43
2023-02-05T19:33:42.656Z,38.60
2023-02-05T19:38:45.464Z,25.20
2023-02-05T19:43:57.281Z,26.17
2023-02-05T19:49:06.063Z,24.40
2023-02-05T19:54:08.548Z,31.13
2023-02-05T19:59:11.770Z,29.77
2023-02-05T20:04:17.480Z,30.70
2023-02-05T20:09:20.225Z,39.57
2023-02-05T20:14:23.695Z,45.70
2023-02-05T20:19:26.232Z,49.10
2023-02-05T20:24:28.748Z,45.20
2023-02-05T20:29:49.692Z,43.57
2023-02-05T20:34:52.322Z,55.43
2023-02-05T20:39:57.463Z,54.87
2023-02-05T20:45:00.517Z,66.20
2023-02-05T20:50:03.136Z,74.70
2023-02-05T20:55:06.349Z,66.47
2023-02-05T21:00:10.061Z,84.07
2023-02-05T21:05:12.604Z,109.60
2023-02-05T21:10:15.384Z,97.53
2023-02-05T21:15:17.947Z,96.93
2023-02-05T21:20:20.372Z,201.80
2023-02-05T21:25:23.151Z,220.27
2023-02-05T21:30:25.573Z,208.97
2023-02-05T21:35:28.465Z,168.07
2023-02-05T21:40:30.992Z,117.10
2023-02-05T21:45:36.626Z,130.00
2023-02-05T21:50:40.694Z,155.73
2023-02-05T21:55:43.209Z,162.20
2023-02-05T22:00:45.618Z,205.77
2023-02-05T22:05:48.172Z,244.77
2023-02-05T22:10:50.541Z,281.43
2023-02-05T22:16:27.811Z,281.10
2023-02-05T22:21:36.190Z,217.93
2023-02-05T22:26:39.247Z,151.10
2023-02-05T22:31:42.640Z,123.83
2023-02-05T22:36:45.230Z,132.10
2023-02-05T22:41:47.622Z,161.20
2023-02-05T22:46:50.384Z,163.30
2023-02-05T22:51:53.277Z,138.20
2023-02-05T22:56:55.719Z,139.07
2023-02-05T23:01:58.168Z,132.43
2023-02-05T23:07:00.723Z,132.60
2023-02-05T23:12:03.336Z,146.47
2023-02-05T23:17:05.714Z,153.87
2023-02-05T23:22:10.325Z,140.47
2023-02-05T23:27:12.741Z,143.20
2023-02-05T23:32:15.257Z,141.40
2023-02-05T23:37:17.945Z,120.80
2023-02-05T23:42:20.366Z,114.67
2023-02-05T23:47:23.001Z,117.00
2023-02-05T23:52:25.395Z,215.50
2023-02-05T23:57:28.780Z,191.37
